Time;durP1;ratioP1;P1;durP2;ratioP2;P2;SDS_P1;SDS_P2;PMS_P1;PMS_P2;Temp;Humidity;BMP_temperature;BMP_pressure;BME280_temperature;BME280_humidity;BME280_pressure;Samples;Min_cycle;Max_cycle;Signal;HPM_P1;HPM_P2
2022/11/09 00:07:07;;;;;;;;;;;;;;;9.52;80.72;98607.99;420491;1299;99549;-40
2022/11/09 00:17:10;;;;;;;;;;;;;;;9.50;80.67;98601.98;420653;1301;108429;-40
2022/11/09 00:27:13;;;;;;;;;;;;;;;9.50;80.81;98596.05;420566;1299;97986;-40
2022/11/09 00:37:20;;;;;;;;;;;;;;;9.47;80.93;98592.31;420765;1292;110190;-40
2022/11/09 00:47:22;;;;;;;;;;;;;;;9.45;80.96;98592.92;420752;1298;108593;-40
2022/11/09 00:57:25;;;;;;;;;;;;;;;9.45;81.16;98585.48;420629;1301;98837;-40
2022/11/09 01:07:28;;;;;;;;;;;;;;;9.46;81.07;98588.24;420649;1300;107859;-40
2022/11/09 01:17:31;;;;;;;;;;;;;;;9.45;81.11;98585.21;420388;1301;99546;-40
2022/11/09 01:27:34;;;;;;;;;;;;;;;9.44;81.04;98577.30;420676;1295;111556;-40
2022/11/09 01:37:36;;;;;;;;;;;;;;;9.43;81.26;98571.98;420271;1291;108453;-40
2022/11/09 01:47:39;;;;;;;;;;;;;;;9.41;81.20;98565.48;420483;1299;98888;-40
2022/11/09 01:57:44;;;;;;;;;;;;;;;9.36;81.22;98561.14;420293;1297;380942;-40
2022/11/09 02:07:48;;;;;;;;;;;;;;;9.35;81.18;98560.95;420595;1299;99414;-40
2022/11/09 02:17:50;;;;;;;;;;;;;;;9.33;81.26;98559.73;421604;1261;110801;-40
2022/11/09 02:27:53;;;;;;;;;;;;;;;9.30;81.28;98556.55;420778;1298;109359;-40
2022/11/09 02:37:55;;;;;;;;;;;;;;;9.23;81.38;98552.23;420843;1298;99234;-41
2022/11/09 02:47:58;;;;;;;;;;;;;;;9.13;81.38;98551.77;420586;1298;107526;-41
2022/11/09 02:58:01;;;;;;;;;;;;;;;9.01;81.53;98551.11;420818;1298;99246;-41
2022/11/09 03:08:03;;;;;;;;;;;;;;;8.95;81.70;98552.88;420851;1298;111925;-41
2022/11/09 03:18:06;;;;;;;;;;;;;;;8.87;81.84;98551.80;420975;1298;106989;-41
2022/11/09 03:28:09;;;;;;;;;;;;;;;8.81;81.96;98549.64;420779;1298;99269;-41
2022/11/09 03:48:14;;;;;;;;;;;;;;;8.79;82.04;98541.72;420839;1298;99272;-41
2022/11/09 03:58:17;;;;;;;;;;;;;;;8.76;82.10;98543.61;420965;1298;111852;-41
2022/11/09 04:08:20;;;;;;;;;;;;;;;8.76;82.15;98539.39;420717;1298;108461;-42
2022/11/09 04:18:22;;;;;;;;;;;;;;;8.70;82.19;98540.50;420869;1292;99207;-41
2022/11/09 04:28:25;;;;;;;;;;;;;;;8.67;82.32;98535.19;420856;1288;108551;-41
2022/11/09 04:38:28;;;;;;;;;;;;;;;8.62;82.44;98526.52;420802;1298;99253;-41
2022/11/09 04:48:31;;;;;;;;;;;;;;;8.59;82.54;98527.25;420711;1298;111206;-41
2022/11/09 04:58:34;;;;;;;;;;;;;;;8.66;82.72;98525.59;421080;1298;109533;-41
2022/11/09 05:08:37;;;;;;;;;;;;;;;8.70;82.80;98524.23;420750;1298;99252;-41
2022/11/09 05:18:39;;;;;;;;;;;;;;;8.74;82.78;98519.05;421147;1299;107631;-41
2022/11/09 05:28:42;;;;;;;;;;;;;;;8.74;82.75;98530.11;420860;1298;98179;-41
2022/11/09 05:38:45;;;;;;;;;;;;;;;8.73;82.74;98535.77;420572;1298;112133;-41
2022/11/09 05:48:47;;;;;;;;;;;;;;;8.74;82.78;98536.77;421282;1298;109223;-41
2022/11/09 05:58:50;;;;;;;;;;;;;;;8.75;82.78;98535.95;420752;1298;99192;-41
2022/11/09 06:08:53;;;;;;;;;;;;;;;8.73;82.73;98552.77;420827;1298;107394;-41
2022/11/09 06:18:55;;;;;;;;;;;;;;;8.75;82.90;98546.61;420896;1298;99265;-41
2022/11/09 06:28:58;;;;;;;;;;;;;;;8.86;83.03;98554.20;420915;1282;111300;-41
2022/11/09 06:39:01;;;;;;;;;;;;;;;9.04;83.09;98548.80;420996;1298;110621;-41
2022/11/09 06:49:04;;;;;;;;;;;;;;;9.23;83.24;98550.14;420704;1295;99256;-41
2022/11/09 07:09:09;;;;;;;;;;;;;;;10.11;83.11;98528.08;420974;1298;99181;-41
2022/11/09 07:19:12;;;;;;;;;;;;;;;10.34;82.77;98535.73;420823;1304;113781;-41
2022/11/09 07:29:15;;;;;;;;;;;;;;;10.84;82.39;98539.70;420833;1301;107567;-41
2022/11/09 07:39:18;;;;;;;;;;;;;;;11.10;81.96;98545.94;420825;1299;99523;-41
2022/11/09 07:49:20;;;;;;;;;;;;;;;11.08;81.76;98548.69;420763;1296;108559;-42
2022/11/09 07:59:23;;;;;;;;;;;;;;;11.39;81.41;98543.67;420890;1298;99329;-41
2022/11/09 08:09:27;;;;;;;;;;;;;;;11.50;80.87;98535.61;420520;1298;110689;-42
2022/11/09 08:19:30;;;;;;;;;;;;;;;11.36;80.53;98529.91;420933;1298;108355;-41
2022/11/09 08:29:32;;;;;;;;;;;;;;;11.32;80.35;98532.20;420820;1300;99982;-41
2022/11/09 08:39:35;;;;;;;;;;;;;;;11.28;80.15;98537.48;420547;1300;107883;-40
2022/11/09 08:49:38;;;;;;;;;;;;;;;11.28;79.90;98532.61;420724;1304;99246;-40
2022/11/09 08:59:40;;;;;;;;;;;;;;;11.49;79.70;98537.92;420961;1297;111272;-40
2022/11/09 09:09:42;;;;;;;;;;;;;;;11.70;79.41;98547.58;420812;1299;108534;-40
2022/11/09 09:19:45;;;;;;;;;;;;;;;11.79;79.37;98551.75;420599;1298;99222;-40
2022/11/09 09:29:52;;;;;;;;;;;;;;;11.71;78.87;98550.81;420982;1298;108178;-41
2022/11/09 09:39:55;;;;;;;;;;;;;;;11.74;78.90;98555.64;420897;1304;98007;-41
2022/11/09 09:50:00;;;;;;;;;;;;;;;11.99;78.64;98549.90;421118;1298;110742;-41
2022/11/09 10:00:05;;;;;;;;;;;;;;;12.29;78.47;98550.15;420883;1291;109231;-41
2022/11/09 10:10:09;;;;;;;;;;;;;;;12.77;78.31;98542.34;421095;1299;97989;-41
2022/11/09 10:20:32;;;;;;;;;;;;;;;13.04;77.87;98530.88;420888;1298;108828;-41
2022/11/09 10:30:35;;;;;;;;;;;;;;;13.15;77.36;98529.52;420803;1296;99236;-41
2022/11/09 10:40:41;;;;;;;;;;;;;;;13.02;77.00;98522.78;420839;1291;111785;-42
2022/11/09 10:50:45;;;;;;;;;;;;;;;13.20;76.74;98520.09;420718;1295;109475;-41
2022/11/09 11:00:57;;;;;;;;;;;;;;;13.25;75.72;98510.39;420771;1295;98833;-41
2022/11/09 11:11:13;;;;;;;;;;;;;;;13.47;75.43;98523.33;420601;1298;108100;-41
2022/11/09 11:21:36;;;;;;;;;;;;;;;13.61;74.98;98529.02;420811;1291;99371;-41
2022/11/09 11:31:38;;;;;;;;;;;;;;;13.89;74.67;98535.80;420922;1290;112286;-41
2022/11/09 11:51:44;;;;;;;;;;;;;;;13.99;73.85;98535.11;420862;1297;99374;-41
2022/11/09 12:11:52;;;;;;;;;;;;;;;13.86;73.28;98525.68;420686;1298;108646;-40
2022/11/09 12:21:54;;;;;;;;;;;;;;;13.81;73.29;98522.67;421003;1298;99246;-40
2022/11/09 12:32:08;;;;;;;;;;;;;;;13.75;73.29;98508.64;420786;1298;109330;-40
2022/11/09 12:42:11;;;;;;;;;;;;;;;13.65;73.13;98508.27;420827;1298;98859;-40
2022/11/09 12:52:13;;;;;;;;;;;;;;;13.52;73.03;98517.58;420647;1297;111564;-40
2022/11/09 13:02:19;;;;;;;;;;;;;;;13.48;73.10;98528.31;420740;1298;109397;-40
2022/11/09 13:12:32;;;;;;;;;;;;;;;13.42;73.14;98537.81;421056;1291;99227;-40
2022/11/09 13:22:53;;;;;;;;;;;;;;;13.38;73.15;98541.59;421200;1298;108527;-40
2022/11/09 13:33:13;;;;;;;;;;;;;;;13.24;72.98;98528.70;420696;1297;97983;-40
2022/11/09 13:43:16;;;;;;;;;;;;;;;13.12;73.21;98523.34;420745;1298;112288;-40
2022/11/09 14:03:30;;;;;;;;;;;;;;;12.73;73.40;98529.86;420921;1298;99227;-40
2022/11/09 14:13:47;;;;;;;;;;;;;;;12.51;73.54;98534.82;420907;1298;109104;-40
2022/11/09 14:23:50;;;;;;;;;;;;;;;12.30;73.56;98526.67;420669;1298;99224;-39
2022/11/09 14:44:01;;;;;;;;;;;;;;;12.07;73.80;98532.57;420648;1298;108051;-41
2022/11/09 14:54:05;;;;;;;;;;;;;;;11.92;74.04;98529.64;420707;1298;98949;-41
2022/11/09 15:04:07;;;;;;;;;;;;;;;11.72;74.15;98529.86;420904;1292;107244;-41
2022/11/09 15:14:11;;;;;;;;;;;;;;;11.41;74.33;98534.70;420839;1296;99855;-41
2022/11/09 15:34:16;;;;;;;;;;;;;;;10.82;74.67;98534.09;420810;1294;107922;-41
2022/11/09 15:54:23;;;;;;;;;;;;;;;10.56;75.12;98539.66;420755;1298;107821;-41
2022/11/09 16:04:25;;;;;;;;;;;;;;;10.47;75.45;98531.50;420768;1292;98851;-41
2022/11/09 16:14:30;;;;;;;;;;;;;;;10.33;75.44;98521.67;420877;1294;111108;-41
2022/11/09 16:24:33;;;;;;;;;;;;;;;10.25;75.66;98509.33;420887;1298;108071;-41
2022/11/09 16:34:36;;;;;;;;;;;;;;;10.17;75.82;98518.64;420486;1298;99603;-41
2022/11/09 16:44:40;;;;;;;;;;;;;;;10.10;75.95;98536.48;420784;1298;109249;-42
2022/11/09 16:54:43;;;;;;;;;;;;;;;9.98;76.02;98554.24;420789;1298;99291;-41
2022/11/09 17:04:45;;;;;;;;;;;;;;;9.86;76.21;98541.09;420820;1298;110705;-41
2022/11/09 17:14:48;;;;;;;;;;;;;;;9.79;76.45;98541.04;420829;1298;107376;-41
2022/11/09 17:24:50;;;;;;;;;;;;;;;9.71;76.55;98557.04;420735;1298;98065;-41
2022/11/09 17:34:53;;;;;;;;;;;;;;;9.62;76.74;98535.15;420851;1298;109412;-41
2022/11/09 17:44:56;;;;;;;;;;;;;;;9.58;77.04;98519.63;420827;1298;99239;-41
2022/11/09 17:54:59;;;;;;;;;;;;;;;9.58;77.07;98522.06;420875;1298;112068;-41
2022/11/09 18:05:01;;;;;;;;;;;;;;;9.59;77.35;98524.32;420779;1292;108608;-41
2022/11/09 18:15:05;;;;;;;;;;;;;;;9.56;77.50;98512.95;420694;1294;99775;-41
2022/11/09 18:25:08;;;;;;;;;;;;;;;9.53;77.58;98525.88;420998;1294;108431;-41
2022/11/09 18:35:11;;;;;;;;;;;;;;;9.48;77.62;98537.04;420922;1298;98902;-41
2022/11/09 18:45:14;;;;;;;;;;;;;;;9.41;77.83;98542.59;420874;1298;112182;-41
2022/11/09 19:05:20;;;;;;;;;;;;;;;9.22;77.96;98546.73;420917;1298;99045;-40
2022/11/09 19:15:22;;;;;;;;;;;;;;;9.18;78.12;98547.23;420817;1291;108511;-41
2022/11/09 19:25:25;;;;;;;;;;;;;;;9.09;78.15;98556.61;420519;1292;98058;-41
2022/11/09 19:35:28;;;;;;;;;;;;;;;9.03;78.42;98574.84;420795;1292;110913;-39
2022/11/09 19:45:38;;;;;;;;;;;;;;;8.97;78.45;98568.80;421033;1298;107580;-41
2022/11/09 19:55:41;;;;;;;;;;;;;;;8.90;78.48;98570.98;420928;1298;100049;-42
2022/11/09 20:05:44;;;;;;;;;;;;;;;8.85;78.75;98583.98;420869;1298;109273;-42
2022/11/09 20:15:47;;;;;;;;;;;;;;;8.82;78.77;98588.01;420864;1288;99253;-40
2022/11/09 20:25:50;;;;;;;;;;;;;;;8.77;78.68;98582.87;420833;1291;112254;-40
2022/11/09 20:35:53;;;;;;;;;;;;;;;8.75;79.00;98593.70;420668;1290;107323;-40
2022/11/09 20:45:56;;;;;;;;;;;;;;;8.71;79.00;98596.21;420822;1290;99215;-40
2022/11/09 20:55:59;;;;;;;;;;;;;;;8.68;79.12;98604.36;420917;1292;108479;-40
2022/11/09 21:06:03;;;;;;;;;;;;;;;8.66;79.15;98606.14;420878;1294;99532;-40
2022/11/09 21:16:08;;;;;;;;;;;;;;;8.57;79.14;98603.98;420995;1299;112123;-40
2022/11/09 21:36:32;;;;;;;;;;;;;;;8.37;79.25;98604.15;420756;1298;98039;-40
2022/11/09 21:46:35;;;;;;;;;;;;;;;8.26;79.62;98607.34;420924;1298;107179;-40
2022/11/09 21:56:38;;;;;;;;;;;;;;;8.15;79.51;98614.84;420740;1291;99227;-40
2022/11/09 22:06:42;;;;;;;;;;;;;;;8.07;79.66;98626.82;420571;1298;111977;-42
2022/11/09 22:16:44;;;;;;;;;;;;;;;8.06;79.88;98631.25;421000;1296;107445;-40
2022/11/09 22:26:47;;;;;;;;;;;;;;;7.98;79.98;98630.17;421210;1298;98864;-40
2022/11/09 22:46:51;;;;;;;;;;;;;;;7.84;80.29;98642.32;420611;1296;99493;-42
2022/11/09 22:56:54;;;;;;;;;;;;;;;7.73;80.28;98648.23;420824;1298;113863;-41
2022/11/09 23:06:57;;;;;;;;;;;;;;;7.65;80.61;98650.08;420734;1298;106669;-41
2022/11/09 23:16:59;;;;;;;;;;;;;;;7.64;80.69;98653.52;420734;1298;98886;-41
2022/11/09 23:27:02;;;;;;;;;;;;;;;7.64;80.82;98645.21;420685;1298;107900;-41
2022/11/09 23:47:07;;;;;;;;;;;;;;;7.73;81.18;98658.84;420926;1298;110724;-41
2022/11/09 23:57:10;;;;;;;;;;;;;;;7.84;81.29;98662.16;420542;1294;108553;-41
